createdAt,value
2022-12-27T00:00:37.059Z,100735.16
2022-12-27T00:03:05.221Z,100733.28
2022-12-27T00:05:32.965Z,100725.25
2022-12-27T00:08:00.713Z,100734.47
2022-12-27T00:10:28.609Z,100740.78
2022-12-27T00:12:56.438Z,100740.78
2022-12-27T00:15:24.273Z,100743.66
2022-12-27T00:17:52.113Z,100759.84
2022-12-27T00:20:19.904Z,100765.16
2022-12-27T00:22:47.666Z,100770.75
2022-12-27T00:25:15.486Z,100778.09
2022-12-27T00:27:43.239Z,100775.53
2022-12-27T00:30:11.025Z,100783.72
2022-12-27T00:32:38.789Z,100792.94
2022-12-27T00:35:06.559Z,100795.66
2022-12-27T00:37:34.400Z,100790.38
2022-12-27T00:40:02.218Z,100794.13
2022-12-27T00:42:30.040Z,100794.97
2022-12-27T00:44:57.849Z,100791.56
2022-12-27T00:47:25.735Z,100790.72
2022-12-27T00:49:53.593Z,100790.91
2022-12-27T00:52:21.369Z,100795.34
2022-12-27T00:54:49.106Z,100799.75
2022-12-27T00:57:18.468Z,100797.22
2022-12-27T00:59:46.244Z,100808.28
2022-12-27T01:02:14.038Z,100817.66
2022-12-27T01:04:41.935Z,100821.59
2022-12-27T01:07:09.712Z,100829.75
2022-12-27T01:09:37.474Z,100837.25
2022-12-27T01:12:05.255Z,100843.06
2022-12-27T01:14:33.522Z,100846.00
2022-12-27T01:17:01.389Z,100850.91
2022-12-27T01:19:29.197Z,100864.53
2022-12-27T01:21:56.969Z,100871.03
2022-12-27T01:24:24.745Z,100860.44
2022-12-27T01:26:52.498Z,100860.44
2022-12-27T01:29:20.348Z,100862.13
2022-12-27T01:31:50.040Z,100872.03
2022-12-27T01:34:17.896Z,100870.31
2022-12-27T01:36:45.768Z,100873.03
2022-12-27T01:39:13.525Z,100869.47
2022-12-27T01:41:59.133Z,100855.84
2022-12-27T01:44:26.890Z,100869.63
2022-12-27T01:46:54.704Z,100871.34
2022-12-27T01:49:22.458Z,100871.34
2022-12-27T01:51:50.241Z,100873.38
2022-12-27T01:54:18.043Z,100872.34
2022-12-27T01:56:45.839Z,100881.22
2022-12-27T01:59:13.601Z,100897.56
2022-12-27T02:01:41.580Z,100901.13
2022-12-27T02:04:09.428Z,100900.28
2022-12-27T02:06:37.209Z,100918.50
2022-12-27T02:09:04.916Z,100921.06
2022-12-27T02:11:50.251Z,100915.78
2022-12-27T02:14:18.958Z,100918.50
2022-12-27T02:16:48.052Z,100921.94
2022-12-27T02:19:16.103Z,100924.69
2022-12-27T02:21:43.947Z,100927.22
2022-12-27T02:24:10.699Z,100934.53
2022-12-27T02:26:38.580Z,100930.13
2022-12-27T02:29:06.402Z,100932.97
2022-12-27T02:31:34.236Z,100941.88
2022-12-27T02:34:02.001Z,100933.69
2022-12-27T02:36:29.754Z,100951.03
2022-12-27T02:38:57.530Z,100947.63
2022-12-27T02:41:42.745Z,100948.47
2022-12-27T02:44:28.036Z,100955.13
2022-12-27T02:47:13.146Z,100949.69
2022-12-27T02:49:58.297Z,100949.00
2022-12-27T02:52:43.454Z,100956.13
2022-12-27T02:55:11.236Z,100947.31
2022-12-27T02:57:38.019Z,100952.56
2022-12-27T03:00:23.427Z,100955.97
2022-12-27T03:03:08.678Z,100959.19
2022-12-27T03:05:36.519Z,100972.47
2022-12-27T03:08:04.285Z,100981.69
2022-12-27T03:10:50.428Z,100984.56
2022-12-27T03:13:35.650Z,100984.91
2022-12-27T03:16:03.488Z,100994.97
2022-12-27T03:18:31.311Z,100993.28
2022-12-27T03:21:16.496Z,100996.16
2022-12-27T03:24:02.054Z,100995.31
2022-12-27T03:26:29.877Z,100986.28
2022-12-27T03:29:20.515Z,100984.41
2022-12-27T03:32:05.672Z,100991.75
2022-12-27T03:34:35.691Z,100985.25
2022-12-27T03:37:21.298Z,100982.69
2022-12-27T03:39:49.102Z,100992.59
2022-12-27T03:42:34.652Z,100992.41
2022-12-27T03:45:02.381Z,100996.16
2022-12-27T03:47:29.138Z,100997.69
2022-12-27T03:49:56.886Z,100995.81
2022-12-27T03:52:24.685Z,100992.41
2022-12-27T03:54:52.515Z,100996.66
2022-12-27T03:57:20.265Z,101003.81
2022-12-27T03:59:48.049Z,100998.38
2022-12-27T04:02:15.914Z,101000.06
2022-12-27T04:04:43.757Z,101014.38
2022-12-27T04:07:11.491Z,101010.81
2022-12-27T04:09:56.885Z,101011.81
2022-12-27T04:12:42.296Z,101018.13
2022-12-27T04:15:27.655Z,101020.16
2022-12-27T04:18:12.912Z,101022.06
2022-12-27T04:20:57.995Z,101021.03
2022-12-27T04:23:43.500Z,101020.53
2022-12-27T04:26:28.753Z,101020.88
2022-12-27T04:29:13.817Z,101023.59
2022-12-27T04:31:58.973Z,101009.97
2022-12-27T04:34:42.627Z,101012.84
2022-12-27T04:37:10.395Z,101012.69
2022-12-27T04:39:38.160Z,101021.53
2022-12-27T04:42:23.315Z,101013.69
2022-12-27T04:45:14.899Z,101014.72
2022-12-27T04:48:00.514Z,101026.63
2022-12-27T04:50:45.692Z,101025.09
2022-12-27T04:53:30.853Z,101028.16
2022-12-27T04:55:58.702Z,101030.03
2022-12-27T04:58:26.502Z,101019.13
2022-12-27T05:01:19.080Z,101023.41
2022-12-27T05:03:47.128Z,101024.25
2022-12-27T05:06:14.973Z,101029.53
2022-12-27T05:09:00.626Z,101026.97
2022-12-27T05:11:45.693Z,101023.41
2022-12-27T05:14:13.437Z,101039.25
2022-12-27T05:16:41.176Z,101036.16
2022-12-27T05:19:09.051Z,101038.19
2022-12-27T05:21:36.871Z,101033.75
2022-12-27T05:24:18.496Z,101043.66
2022-12-27T05:26:46.292Z,101044.81
2022-12-27T05:29:14.158Z,101042.94
2022-12-27T05:31:42.139Z,101039.38
2022-12-27T05:34:09.935Z,101035.47
2022-12-27T05:36:37.694Z,101045.34
2022-12-27T05:39:05.657Z,101038.19
2022-12-27T05:41:33.405Z,101039.88
2022-12-27T05:44:06.882Z,101024.09
2022-12-27T05:46:35.400Z,101039.03
2022-12-27T05:49:03.189Z,101037.53
2022-12-27T05:51:30.971Z,101025.28
2022-12-27T05:53:58.707Z,101038.72
2022-12-27T05:56:26.594Z,101040.44
2022-12-27T05:58:54.457Z,101040.09
2022-12-27T06:01:22.407Z,101045.53
2022-12-27T06:03:50.199Z,101049.81
2022-12-27T06:06:17.994Z,101061.38
2022-12-27T06:08:45.907Z,101064.09
2022-12-27T06:11:13.684Z,101063.78
2022-12-27T06:13:41.394Z,101070.06
2022-12-27T06:16:09.221Z,101074.53
2022-12-27T06:18:37.027Z,101077.38
2022-12-27T06:21:04.891Z,101081.84
2022-12-27T06:23:32.602Z,101075.50
2022-12-27T06:26:00.429Z,101080.13
2022-12-27T06:28:28.147Z,101084.72
2022-12-27T06:30:56.007Z,101081.47
2022-12-27T06:33:23.771Z,101082.34
2022-12-27T06:35:51.605Z,101078.56
2022-12-27T06:38:19.368Z,101085.91
2022-12-27T06:40:47.250Z,101076.19
2022-12-27T06:43:15.002Z,101072.63
2022-12-27T06:45:42.839Z,101076.19
2022-12-27T06:48:10.651Z,101083.88
2022-12-27T06:50:38.522Z,101088.44
2022-12-27T06:53:06.352Z,101085.25
2022-12-27T06:55:34.137Z,101092.44
2022-12-27T06:58:01.897Z,101100.25
2022-12-27T07:00:29.879Z,101105.53
2022-12-27T07:02:57.812Z,101117.31
2022-12-27T07:05:25.593Z,101115.94
2022-12-27T07:07:54.700Z,101125.63
2022-12-27T07:10:22.497Z,101127.16
2022-12-27T07:12:50.286Z,101137.91
2022-12-27T07:15:18.132Z,101131.59
2022-12-27T07:17:45.869Z,101136.88
2022-12-27T07:20:13.656Z,101134.00
2022-12-27T07:22:41.426Z,101148.28
2022-12-27T07:25:09.258Z,101162.81
2022-12-27T07:27:37.008Z,101163.81
2022-12-27T07:30:04.783Z,101174.56
2022-12-27T07:32:32.560Z,101170.78
2022-12-27T07:35:00.342Z,101178.81
2022-12-27T07:37:28.088Z,101177.97
2022-12-27T07:39:55.879Z,101172.31
2022-12-27T07:42:23.711Z,101180.16
2022-12-27T07:44:51.463Z,101184.78
2022-12-27T07:47:19.294Z,101185.63
2022-12-27T07:49:47.051Z,101190.22
2022-12-27T07:52:14.868Z,101188.34
2022-12-27T07:54:42.644Z,101186.50
2022-12-27T07:57:10.406Z,101182.59
2022-12-27T07:59:38.196Z,101173.38
2022-12-27T08:02:06.170Z,101174.22
2022-12-27T08:04:34.051Z,101185.66
2022-12-27T08:07:02.232Z,101170.13
2022-12-27T08:09:30.051Z,101179.31
2022-12-27T08:11:57.778Z,101175.59
2022-12-27T08:14:25.658Z,101181.91
2022-12-27T08:16:54.116Z,101170.84
2022-12-27T08:19:22.032Z,101171.84
2022-12-27T08:21:49.741Z,101155.47
2022-12-27T08:24:17.479Z,101160.09
2022-12-27T08:26:45.281Z,101154.63
2022-12-27T08:29:13.048Z,101161.97
2022-12-27T08:31:40.798Z,101153.78
2022-12-27T08:34:08.590Z,101150.22
2022-12-27T08:36:54.733Z,101151.91
2022-12-27T08:39:23.256Z,101148.47
2022-12-27T08:41:51.231Z,101148.84
2022-12-27T08:44:19.000Z,101151.06
2022-12-27T08:46:46.915Z,101159.03
2022-12-27T08:49:14.681Z,101165.34
2022-12-27T08:51:42.416Z,101167.22
2022-12-27T08:54:10.281Z,101166.38
2022-12-27T08:56:38.061Z,101158.53
2022-12-27T08:59:05.814Z,101162.97
2022-12-27T09:01:33.880Z,101183.09
2022-12-27T09:04:01.728Z,101182.03
2022-12-27T09:06:29.468Z,101181.03
2022-12-27T09:08:57.257Z,101195.34
2022-12-27T09:11:25.111Z,101203.34
2022-12-27T09:13:53.243Z,101203.50
2022-12-27T09:16:21.154Z,101203.22
2022-12-27T09:18:48.984Z,101214.97
2022-12-27T09:21:17.187Z,101214.63
2022-12-27T09:23:45.058Z,101209.16
2022-12-27T09:26:12.805Z,101213.59
2022-12-27T09:28:40.611Z,101209.84
2022-12-27T09:31:08.484Z,101217.84
2022-12-27T09:33:36.338Z,101214.13
2022-12-27T09:36:04.164Z,101212.94
2022-12-27T09:38:31.947Z,101209.31
2022-12-27T09:40:59.728Z,101223.16
2022-12-27T09:43:27.907Z,101224.16
2022-12-27T09:45:55.837Z,101221.09
2022-12-27T09:48:27.714Z,101229.44
2022-12-27T09:51:00.452Z,101224.00
2022-12-27T09:53:28.287Z,101225.53
2022-12-27T09:55:56.013Z,101233.88
2022-12-27T09:58:23.803Z,101226.56
2022-12-27T10:00:51.611Z,101225.69
2022-12-27T10:03:20.096Z,101225.38
2022-12-27T10:05:50.877Z,101225.38
2022-12-27T10:08:22.442Z,101226.56
2022-12-27T10:10:50.256Z,101227.56
2022-12-27T10:13:18.078Z,101225.38
2022-12-27T10:15:48.359Z,101226.56
2022-12-27T10:18:16.145Z,101231.13
2022-12-27T10:20:43.919Z,101233.22
2022-12-27T10:23:11.747Z,101240.69
2022-12-27T10:25:39.564Z,101223.50
2022-12-27T10:28:07.442Z,101221.09
2022-12-27T10:30:35.247Z,101233.22
2022-12-27T10:33:04.342Z,101233.56
2022-12-27T10:35:32.081Z,101241.03
2022-12-27T10:38:01.844Z,101237.78
2022-12-27T10:40:34.183Z,101245.94
2022-12-27T10:43:02.361Z,101251.59
2022-12-27T10:45:30.258Z,101256.00
2022-12-27T10:47:58.056Z,101248.53
2022-12-27T10:50:25.914Z,101252.28
2022-12-27T10:52:57.482Z,101255.00
2022-12-27T10:55:25.836Z,101250.56
2022-12-27T10:57:53.579Z,101261.47
2022-12-27T11:00:21.334Z,101253.13
2022-12-27T11:02:49.485Z,101235.94
2022-12-27T11:05:17.342Z,101249.38
2022-12-27T11:07:45.280Z,101245.66
2022-12-27T11:10:13.125Z,101252.44
2022-12-27T11:12:41.434Z,101247.84
2022-12-27T11:15:09.293Z,101247.84
2022-12-27T11:17:37.126Z,101252.09
2022-12-27T11:20:05.000Z,101241.75
2022-12-27T11:22:32.757Z,101248.53
2022-12-27T11:25:01.401Z,101248.38
2022-12-27T11:27:29.205Z,101244.63
2022-12-27T11:29:57.005Z,101237.63
2022-12-27T11:32:24.909Z,101242.03
2022-12-27T11:34:52.706Z,101250.91
2022-12-27T11:37:20.484Z,101248.19
2022-12-27T11:39:48.361Z,101256.03
2022-12-27T11:42:16.253Z,101257.91
2022-12-27T11:44:44.014Z,101261.50
2022-12-27T11:47:11.880Z,101258.09
2022-12-27T11:49:39.723Z,101251.78
2022-12-27T11:52:07.493Z,101253.31
2022-12-27T11:54:35.203Z,101260.50
2022-12-27T11:57:03.008Z,101264.91
2022-12-27T11:59:30.830Z,101256.72
2022-12-27T12:01:58.912Z,101250.56
2022-12-27T12:04:26.722Z,101256.38
2022-12-27T12:06:54.538Z,101252.94
2022-12-27T12:09:22.366Z,101269.31
2022-12-27T12:11:54.848Z,101260.13
2022-12-27T12:14:23.280Z,101257.56
2022-12-27T12:16:51.391Z,101264.91
2022-12-27T12:19:19.263Z,101262.16
2022-12-27T12:21:47.167Z,101256.72
2022-12-27T12:24:15.513Z,101249.56
2022-12-27T12:26:43.459Z,101250.41
2022-12-27T12:29:11.251Z,101249.91
2022-12-27T12:31:39.049Z,101255.38
2022-12-27T12:34:06.856Z,101255.53
2022-12-27T12:36:34.604Z,101261.13
2022-12-27T12:39:02.460Z,101262.84
2022-12-27T12:41:30.295Z,101271.19
2022-12-27T12:43:58.454Z,101267.63
2022-12-27T12:46:26.364Z,101256.84
2022-12-27T12:48:54.193Z,101264.38
2022-12-27T12:51:22.027Z,101265.38
2022-12-27T12:53:49.776Z,101260.97
2022-12-27T12:56:17.559Z,101259.22
2022-12-27T12:58:46.375Z,101264.88
2022-12-27T13:01:15.077Z,101259.56
2022-12-27T13:03:43.459Z,101262.47
2022-12-27T13:06:11.208Z,101259.06
2022-12-27T13:08:38.957Z,101265.34
2022-12-27T13:11:06.757Z,101266.38
2022-12-27T13:13:34.551Z,101260.25
2022-12-27T13:16:02.377Z,101261.09
2022-12-27T13:18:31.038Z,101261.09
2022-12-27T13:21:00.253Z,101256.66
2022-12-27T13:23:28.061Z,101260.25
2022-12-27T13:25:55.835Z,101268.41
2022-12-27T13:28:23.660Z,101267.56
2022-12-27T13:30:51.608Z,101274.22
2022-12-27T13:33:19.473Z,101274.88
2022-12-27T13:35:47.248Z,101275.06
2022-12-27T13:38:15.050Z,101266.03
2022-12-27T13:40:42.817Z,101260.59
2022-12-27T13:43:10.675Z,101264.31
2022-12-27T13:45:38.491Z,101266.03
2022-12-27T13:48:06.420Z,101277.09
2022-12-27T13:50:34.154Z,101267.22
2022-12-27T13:53:01.930Z,101264.66
2022-12-27T13:55:30.264Z,101259.19
2022-12-27T13:57:58.100Z,101261.22
2022-12-27T14:00:25.941Z,101263.94
2022-12-27T14:02:54.038Z,101260.38
2022-12-27T14:05:21.865Z,101255.63
2022-12-27T14:07:49.641Z,101266.66
2022-12-27T14:10:17.415Z,101264.28
2022-12-27T14:12:45.303Z,101270.75
2022-12-27T14:15:13.051Z,101273.16
2022-12-27T14:17:40.853Z,101276.72
2022-12-27T14:20:08.660Z,101278.47
2022-12-27T14:22:36.428Z,101266.53
2022-12-27T14:25:04.271Z,101280.47
2022-12-27T14:27:32.264Z,101277.91
2022-12-27T14:30:00.108Z,101278.09
2022-12-27T14:32:28.046Z,101275.66
2022-12-27T14:34:59.413Z,101272.59
2022-12-27T14:37:27.748Z,101271.69
2022-12-27T14:39:55.589Z,101264.56
2022-12-27T14:42:23.400Z,101269.16
2022-12-27T14:44:51.203Z,101266.13
2022-12-27T14:47:18.913Z,101264.00
2022-12-27T14:49:46.650Z,101263.72
2022-12-27T14:52:14.570Z,101256.22
2022-12-27T14:54:42.346Z,101263.25
2022-12-27T14:57:10.267Z,101273.56
2022-12-27T14:59:38.148Z,101273.06
2022-12-27T15:02:06.048Z,101283.31
2022-12-27T15:04:34.150Z,101281.94
2022-12-27T15:07:02.145Z,101294.03
2022-12-27T15:09:29.920Z,101303.63
2022-12-27T15:11:57.733Z,101292.94
2022-12-27T15:14:25.468Z,101294.22
2022-12-27T15:16:53.305Z,101292.31
2022-12-27T15:19:21.017Z,101280.78
2022-12-27T15:21:48.772Z,101285.88
2022-12-27T15:24:16.558Z,101287.69
2022-12-27T15:26:44.333Z,101274.50
2022-12-27T15:29:12.146Z,101268.13
2022-12-27T15:31:39.927Z,101265.78
2022-12-27T15:34:07.721Z,101266.72
2022-12-27T15:36:35.467Z,101273.59
2022-12-27T15:39:03.337Z,101267.53
2022-12-27T15:41:31.153Z,101260.31
2022-12-27T15:43:59.187Z,101259.69
2022-12-27T15:46:32.511Z,101261.06
2022-12-27T15:49:03.640Z,101267.50
2022-12-27T15:51:31.407Z,101259.06
2022-12-27T15:53:59.142Z,101261.97
2022-12-27T15:56:26.889Z,101253.06
2022-12-27T15:58:55.295Z,101254.44
2022-12-27T16:01:25.982Z,101259.59
2022-12-27T16:03:54.207Z,101247.69
2022-12-27T16:06:22.139Z,101248.47
2022-12-27T16:08:49.839Z,101248.34
2022-12-27T16:11:17.807Z,101257.47
2022-12-27T16:13:45.629Z,101260.50
2022-12-27T16:16:13.401Z,101260.28
2022-12-27T16:18:41.213Z,101254.53
2022-12-27T16:21:08.993Z,101260.25
2022-12-27T16:23:37.391Z,101262.09
2022-12-27T16:26:05.245Z,101253.84
2022-12-27T16:28:33.007Z,101252.06
2022-12-27T16:31:00.845Z,101255.41
2022-12-27T16:33:28.691Z,101264.84
2022-12-27T16:35:56.503Z,101252.34
2022-12-27T16:38:24.292Z,101253.31
2022-12-27T16:40:52.067Z,101255.06
2022-12-27T16:43:19.858Z,101254.84
2022-12-27T16:45:47.602Z,101264.88
2022-12-27T16:48:15.358Z,101252.16
2022-12-27T16:50:43.100Z,101265.59
2022-12-27T16:53:10.882Z,101259.53
2022-12-27T16:55:40.729Z,101260.94
2022-12-27T16:58:08.455Z,101265.06
2022-12-27T17:00:36.641Z,101271.69
2022-12-27T17:03:04.528Z,101263.22
2022-12-27T17:05:32.353Z,101264.03
2022-12-27T17:08:00.616Z,101268.91
2022-12-27T17:10:28.358Z,101265.16
2022-12-27T17:12:56.167Z,101267.94
2022-12-27T17:15:24.028Z,101260.13
2022-12-27T17:17:51.795Z,101267.41
2022-12-27T17:20:19.663Z,101258.59
2022-12-27T17:22:47.408Z,101253.44
2022-12-27T17:25:15.294Z,101253.66
2022-12-27T17:27:43.120Z,101250.66
2022-12-27T17:30:10.974Z,101249.22
2022-12-27T17:32:39.116Z,101249.22
2022-12-27T17:35:06.885Z,101252.84
2022-12-27T17:37:34.698Z,101249.81
2022-12-27T17:40:02.522Z,101250.63
2022-12-27T17:42:50.222Z,101254.13
2022-12-27T17:45:18.067Z,101249.13
2022-12-27T17:47:45.918Z,101244.63
2022-12-27T17:50:13.711Z,101259.94
2022-12-27T17:53:04.468Z,101261.81
2022-12-27T17:55:49.822Z,101260.69
2022-12-27T17:58:17.596Z,101258.81
2022-12-27T18:00:45.555Z,101262.94
2022-12-27T18:03:13.409Z,101257.78
2022-12-27T18:05:41.486Z,101262.84
2022-12-27T18:08:09.301Z,101271.53
2022-12-27T18:10:37.071Z,101263.28
2022-12-27T18:13:04.871Z,101261.81
2022-12-27T18:15:34.205Z,101258.66
2022-12-27T18:18:02.047Z,101256.53
2022-12-27T18:20:31.099Z,101270.16
2022-12-27T18:22:58.878Z,101270.63
2022-12-27T18:25:26.749Z,101274.91
2022-12-27T18:27:54.718Z,101275.50
2022-12-27T18:30:22.598Z,101285.25
2022-12-27T18:32:50.711Z,101279.78
2022-12-27T18:35:23.998Z,101283.84
2022-12-27T18:37:52.417Z,101280.84
2022-12-27T18:40:20.444Z,101287.94
2022-12-27T18:42:53.160Z,101278.34
2022-12-27T18:45:21.340Z,101279.75
2022-12-27T18:47:49.460Z,101270.84
2022-12-27T18:50:17.267Z,101267.19
2022-12-27T18:52:49.605Z,101268.75
2022-12-27T18:55:20.836Z,101255.78
2022-12-27T18:57:48.609Z,101250.94
2022-12-27T19:00:16.404Z,101253.56
2022-12-27T19:02:44.869Z,101239.81
2022-12-27T19:05:12.971Z,101244.59
2022-12-27T19:07:40.745Z,101245.84
2022-12-27T19:10:08.697Z,101234.81
2022-12-27T19:12:36.509Z,101236.09
2022-12-27T19:15:04.504Z,101229.94
2022-12-27T19:17:33.128Z,101227.75
2022-12-27T19:20:01.003Z,101230.13
2022-12-27T19:22:28.760Z,101228.44
2022-12-27T19:24:56.697Z,101229.59
2022-12-27T19:27:24.894Z,101216.94
2022-12-27T19:29:52.821Z,101226.91
2022-12-27T19:32:20.676Z,101231.97
2022-12-27T19:34:48.438Z,101226.47
2022-12-27T19:37:16.315Z,101221.81
2022-12-27T19:39:45.615Z,101225.31
2022-12-27T19:42:13.368Z,101209.84
2022-12-27T19:44:41.151Z,101208.59
2022-12-27T19:47:08.954Z,101207.72
2022-12-27T19:49:44.924Z,101210.22
2022-12-27T19:52:13.028Z,101205.56
2022-12-27T19:54:40.816Z,101217.97
2022-12-27T19:57:09.434Z,101209.81
2022-12-27T19:59:37.202Z,101213.31
2022-12-27T20:02:05.133Z,101216.56
2022-12-27T20:04:33.062Z,101220.44
2022-12-27T20:07:00.853Z,101222.31
2022-12-27T20:09:28.629Z,101216.63
2022-12-27T20:11:56.568Z,101205.44
2022-12-27T20:14:24.635Z,101208.28
2022-12-27T20:16:52.471Z,101216.56
2022-12-27T20:19:22.099Z,101217.69
2022-12-27T20:21:50.045Z,101216.22
2022-12-27T20:24:18.089Z,101216.00
2022-12-27T20:26:45.982Z,101209.94
2022-12-27T20:29:15.156Z,101205.06
2022-12-27T20:31:46.116Z,101199.31
2022-12-27T20:34:14.121Z,101193.44
2022-12-27T20:36:42.167Z,101196.38
2022-12-27T20:39:10.124Z,101194.06
2022-12-27T20:41:37.986Z,101191.34
2022-12-27T20:44:05.804Z,101188.50
2022-12-27T20:46:33.650Z,101190.91
2022-12-27T20:49:01.503Z,101181.53
2022-12-27T20:51:31.711Z,101184.13
2022-12-27T20:53:59.492Z,101174.72
2022-12-27T20:56:27.407Z,101183.44
2022-12-27T20:58:55.195Z,101174.75
2022-12-27T21:01:23.144Z,101176.81
2022-12-27T21:03:51.085Z,101183.69
2022-12-27T21:06:19.092Z,101181.63
2022-12-27T21:08:52.552Z,101176.53
2022-12-27T21:11:24.341Z,101185.91
2022-12-27T21:13:52.197Z,101181.66
2022-12-27T21:16:20.507Z,101182.84
2022-12-27T21:18:48.308Z,101188.47
2022-12-27T21:23:47.589Z,101185.09
2022-12-27T21:26:15.523Z,101192.78
2022-12-27T21:28:43.362Z,101193.81
2022-12-27T21:31:11.324Z,101192.44
2022-12-27T21:33:39.293Z,101174.53
2022-12-27T21:36:07.052Z,101182.91
2022-12-27T21:38:35.084Z,101177.59
2022-12-27T21:41:02.932Z,101176.94
2022-12-27T21:43:30.781Z,101176.06
2022-12-27T21:45:58.671Z,101169.09
2022-12-27T21:48:26.661Z,101170.28
2022-12-27T21:50:54.572Z,101170.47
2022-12-27T21:53:22.329Z,101167.06
2022-12-27T21:55:50.052Z,101169.97
2022-12-27T21:58:18.016Z,101165.69
2022-12-27T22:00:46.061Z,101164.00
2022-12-27T22:03:14.368Z,101176.97
2022-12-27T22:05:42.422Z,101168.97
2022-12-27T22:08:10.569Z,101172.91
2022-12-27T22:10:38.399Z,101168.44
2022-12-27T22:13:06.335Z,101170.31
2022-12-27T22:15:34.264Z,101170.47
2022-12-27T22:18:02.299Z,101175.94
2022-12-27T22:20:30.396Z,101167.22
2022-12-27T22:22:58.453Z,101165.53
2022-12-27T22:25:26.271Z,101164.00
2022-12-27T22:27:54.081Z,101159.56
2022-12-27T22:30:22.072Z,101154.28
2022-12-27T22:32:49.878Z,101150.03
2022-12-27T22:35:17.801Z,101148.31
2022-12-27T22:37:45.753Z,101144.22
2022-12-27T22:40:26.928Z,101138.25
2022-12-27T22:42:59.059Z,101133.31
2022-12-27T22:45:27.123Z,101129.06
2022-12-27T22:47:54.962Z,101119.34
2022-12-27T22:50:23.434Z,101117.63
2022-12-27T22:52:51.262Z,101106.03
2022-12-27T22:55:20.770Z,101097.84
2022-12-27T22:57:48.650Z,101107.06
2022-12-27T23:00:16.447Z,101104.69
2022-12-27T23:02:44.431Z,101112.88
2022-12-27T23:05:12.388Z,101106.72
2022-12-27T23:08:04.525Z,101114.91
2022-12-27T23:10:28.233Z,101110.31
2022-12-27T23:12:56.075Z,101109.47
2022-12-27T23:15:23.920Z,101102.13
2022-12-27T23:17:51.807Z,101111.16
2022-12-27T23:20:19.703Z,101113.22
2022-12-27T23:22:47.794Z,101117.28
2022-12-27T23:25:15.539Z,101109.31
2022-12-27T23:27:43.361Z,101117.28
2022-12-27T23:30:11.167Z,101112.88
2022-12-27T23:32:38.911Z,101108.41
2022-12-27T23:35:06.821Z,101099.25
2022-12-27T23:37:34.890Z,101100.09
2022-12-27T23:40:02.818Z,101086.28
2022-12-27T23:42:30.606Z,101081.16
2022-12-27T23:44:58.412Z,101079.31
2022-12-27T23:47:26.318Z,101080.31
2022-12-27T23:49:54.185Z,101079.47
2022-12-27T23:52:22.030Z,101066.69
2022-12-27T23:54:49.980Z,101072.97
2022-12-27T23:57:20.159Z,101073.16
2022-12-27T23:59:51.596Z,101076.91
